Accueil
METAR-TAF:

METAR-TAF

Aéroports :

Aérodrome de Tamatave

Tamatave, Madagascar

latitude: 18-07S, longitude: 049-24E, altitude: 5 m

Observation

Le bulletin a été fait il y a 1 heure et 18 minutes, à 01:00 UTC
Vent 4 kt de ouest
Température 19°C
Humidité 94%
Pression 1020 hPa
Visibilité 10 km ou plus
Nuages épars à une hauteur de 1700 ft
Nuages fragmentés à une hauteur de 3300 ft
averses à proximité,

METAR: FMMT 220100Z 26004KT 9999 VCSH SCT017 BKN033 19/18 Q1020

Heure: 05:18 (02:18 UTC)

Prévision

Le bulletin a été fait il y a 3 heures et 18 minutes, à 23:00 UTC
Prévision valable du 22 à 00 UTC au 22 à 24 UTC
Vent 8 kt de ouest/sud-ouest
Visibilité: 9000 m
Quelques nuages à une hauteur de 1700 ft
Nuages fragmentés à une hauteur de 3300 ft
Probabilité 40% :
Temporairement
du 22 à 00 UTC au 22 à 24 UTC
Visibilité: 4000 m
pluie, bruine,

TAF: FMMT 212300Z 2200/2224 24008KT 9000 FEW017 BKN033 PROB40 TEMPO 2200/2224 4000 RADZ

Observations et prévisions météorologiques de plus de 4000 aéroports (messages METAR et TAF).

Les stations disponibles sont représentées par des disques jaunes et rouges sur la carte.

Passer la souris dessus pour voir le nom de la station.

Cliquer dessus pour voir les observations et prévisions météorologiques.

Pour changer de carte: cliquez sur les boutons verts avec une croix noire pour zoomer, sur le bouton vert avec un tiret pour effectuer un zoom arrière, ou sur les flèches vertes pour les cartes adjacentes.


METAR-TAF: